createdAt,value
2017-07-23T00:00:16.087Z,77.80
2017-07-23T00:02:45.838Z,77.70
2017-07-23T00:05:18.103Z,76.80
2017-07-23T00:07:48.599Z,77.50
2017-07-23T00:10:21.039Z,76.90
2017-07-23T00:12:52.032Z,76.70
2017-07-23T00:15:24.003Z,76.40
2017-07-23T00:17:54.483Z,76.30
2017-07-23T00:20:25.776Z,76.50
2017-07-23T00:22:56.173Z,77.10
2017-07-23T00:25:27.322Z,76.80
2017-07-23T00:27:57.198Z,75.90
2017-07-23T00:30:27.965Z,75.60
2017-07-23T00:32:59.251Z,75.30
2017-07-23T00:35:29.802Z,75.30
2017-07-23T00:37:59.928Z,75.70
2017-07-23T00:40:30.587Z,75.70
2017-07-23T00:43:00.771Z,75.70
2017-07-23T00:45:31.509Z,75.90
2017-07-23T00:48:01.846Z,75.20
2017-07-23T00:50:31.659Z,75.20
2017-07-23T00:53:02.541Z,75.40
2017-07-23T00:55:32.299Z,75.50
2017-07-23T00:58:02.857Z,75.60
2017-07-23T01:00:32.587Z,76.40
2017-07-23T01:05:37.347Z,76.60
2017-07-23T01:08:08.350Z,77.00
2017-07-23T01:10:39.341Z,77.50
2017-07-23T01:13:09.213Z,77.40
2017-07-23T01:15:38.841Z,77.40
2017-07-23T01:18:09.085Z,77.60
2017-07-23T01:20:41.597Z,77.20
2017-07-23T01:23:12.052Z,77.20
2017-07-23T01:25:42.994Z,77.50
2017-07-23T01:28:13.651Z,77.00
2017-07-23T01:30:44.253Z,77.30
2017-07-23T01:33:17.081Z,77.20
2017-07-23T01:35:46.902Z,77.10
2017-07-23T01:38:18.098Z,77.60
2017-07-23T01:40:49.521Z,77.90
2017-07-23T01:43:20.619Z,78.40
2017-07-23T01:45:51.701Z,76.90
2017-07-23T01:48:23.091Z,76.60
2017-07-23T01:50:53.381Z,75.60
2017-07-23T01:53:25.096Z,73.80
2017-07-23T01:55:58.319Z,68.80
2017-07-23T01:58:31.199Z,68.80
2017-07-23T02:01:05.595Z,67.50
2017-07-23T02:03:36.742Z,67.50
2017-07-23T02:06:07.397Z,67.20
2017-07-23T02:08:37.655Z,67.60
2017-07-23T02:11:07.161Z,67.10
2017-07-23T02:13:36.686Z,67.40
2017-07-23T02:16:06.691Z,68.00
2017-07-23T02:18:37.424Z,71.80
2017-07-23T02:24:12.238Z,74.40
2017-07-23T02:26:42.156Z,75.50
2017-07-23T02:29:12.293Z,74.60
2017-07-23T02:31:42.332Z,75.10
2017-07-23T02:34:12.083Z,74.80
2017-07-23T02:36:41.865Z,74.10
2017-07-23T02:39:12.010Z,74.50
2017-07-23T02:41:41.699Z,79.60
2017-07-23T02:44:12.005Z,83.80
2017-07-23T02:46:41.959Z,84.50
2017-07-23T02:49:12.126Z,85.70
2017-07-23T02:51:47.773Z,87.10
2017-07-23T02:54:17.794Z,86.70
2017-07-23T02:56:49.416Z,88.60
2017-07-23T02:59:19.020Z,90.00
2017-07-23T03:01:48.714Z,90.40
2017-07-23T03:04:18.277Z,90.30
2017-07-23T03:06:48.243Z,90.10
2017-07-23T03:09:18.323Z,90.70
2017-07-23T03:11:48.353Z,90.40
2017-07-23T03:14:18.571Z,91.20
2017-07-23T03:16:48.618Z,90.60
2017-07-23T03:19:18.562Z,90.40
2017-07-23T03:21:49.171Z,90.10
2017-07-23T03:24:19.156Z,90.60
2017-07-23T03:26:50.108Z,89.50
2017-07-23T03:29:19.635Z,89.40
2017-07-23T03:31:49.240Z,89.10
2017-07-23T03:34:19.936Z,89.30
2017-07-23T03:36:49.514Z,88.30
2017-07-23T03:39:20.881Z,90.00
2017-07-23T03:41:50.448Z,90.50
2017-07-23T03:44:20.555Z,90.60
2017-07-23T03:46:50.166Z,90.50
2017-07-23T03:49:19.748Z,90.00
2017-07-23T03:51:49.981Z,90.20
2017-07-23T03:54:21.742Z,90.20
2017-07-23T03:56:52.426Z,90.20
2017-07-23T03:59:23.122Z,90.10
2017-07-23T04:01:53.183Z,89.80
2017-07-23T04:04:27.076Z,89.30
2017-07-23T04:06:56.743Z,89.90
2017-07-23T04:09:26.849Z,89.20
2017-07-23T04:11:57.122Z,89.30
2017-07-23T04:14:27.066Z,90.10
2017-07-23T04:16:56.896Z,90.60
2017-07-23T04:19:26.954Z,89.70
2017-07-23T04:22:16.181Z,90.00
2017-07-23T04:24:46.386Z,89.90
2017-07-23T04:27:17.192Z,89.30
2017-07-23T04:29:47.214Z,89.30
2017-07-23T04:32:17.858Z,88.60
2017-07-23T04:34:48.966Z,90.00
2017-07-23T04:37:19.298Z,88.70
2017-07-23T04:39:48.953Z,90.50
2017-07-23T04:42:19.751Z,90.90
2017-07-23T04:44:49.602Z,89.70
2017-07-23T04:47:19.537Z,90.10
2017-07-23T04:49:49.372Z,91.40
2017-07-23T04:52:19.286Z,91.20
2017-07-23T04:54:49.088Z,91.10
2017-07-23T04:57:19.557Z,90.00
2017-07-23T04:59:49.531Z,90.20
2017-07-23T05:02:19.549Z,90.30
2017-07-23T05:04:49.922Z,90.00
2017-07-23T05:07:20.745Z,90.80
2017-07-23T05:09:53.331Z,90.80
2017-07-23T05:12:22.874Z,90.60
2017-07-23T05:14:52.864Z,90.10
2017-07-23T05:17:23.592Z,91.30
2017-07-23T05:19:54.291Z,91.40
2017-07-23T05:22:24.254Z,91.40
2017-07-23T05:24:55.188Z,90.70
2017-07-23T05:27:27.473Z,91.20
2017-07-23T05:29:57.279Z,91.20
2017-07-23T05:32:27.926Z,89.00
2017-07-23T05:34:58.020Z,89.00
2017-07-23T05:37:27.983Z,86.60
2017-07-23T05:39:58.115Z,87.00
2017-07-23T05:42:33.547Z,88.90
2017-07-23T05:45:04.365Z,88.90
2017-07-23T05:47:35.391Z,88.10
2017-07-23T05:50:05.145Z,85.40
2017-07-23T05:52:35.266Z,87.80
2017-07-23T05:55:05.538Z,85.30
2017-07-23T05:57:35.235Z,84.10
2017-07-23T06:00:05.670Z,83.50
2017-07-23T06:02:36.209Z,84.20
2017-07-23T06:05:05.776Z,83.40
2017-07-23T06:07:35.307Z,83.50
2017-07-23T06:10:04.934Z,83.00
2017-07-23T06:12:35.226Z,81.20
2017-07-23T06:15:04.787Z,80.60
2017-07-23T06:17:34.360Z,81.20
2017-07-23T06:20:04.339Z,81.40
2017-07-23T06:22:33.871Z,81.10
2017-07-23T06:25:27.504Z,79.70
2017-07-23T06:27:57.311Z,78.30
2017-07-23T06:30:26.775Z,77.30
2017-07-23T06:32:56.523Z,75.80
2017-07-23T06:35:26.134Z,78.20
2017-07-23T06:37:55.947Z,73.70
2017-07-23T06:40:26.426Z,71.30
2017-07-23T06:42:55.951Z,68.30
2017-07-23T06:45:25.497Z,66.70
2017-07-23T06:47:55.306Z,66.10
2017-07-23T06:50:30.531Z,58.10
2017-07-23T06:53:17.624Z,52.00
2017-07-23T06:55:55.067Z,55.20
2017-07-23T06:58:25.104Z,49.50
2017-07-23T07:00:54.784Z,47.20
2017-07-23T07:03:24.442Z,42.40
2017-07-23T07:06:04.372Z,42.20
2017-07-23T07:08:34.020Z,45.50
2017-07-23T07:11:04.169Z,42.80
2017-07-23T07:13:33.722Z,43.80
2017-07-23T07:16:07.408Z,39.50
2017-07-23T07:18:37.803Z,40.00
2017-07-23T07:21:07.463Z,36.10
2017-07-23T07:23:37.067Z,37.50
2017-07-23T07:26:06.874Z,33.60
2017-07-23T07:28:36.423Z,31.60
2017-07-23T07:31:05.987Z,31.60
2017-07-23T07:33:35.847Z,36.10
2017-07-23T07:36:05.483Z,37.30
2017-07-23T07:38:35.122Z,31.20
2017-07-23T07:41:04.931Z,29.70
2017-07-23T07:43:34.704Z,29.60
2017-07-23T07:46:04.483Z,33.50
2017-07-23T07:48:34.006Z,39.30
2017-07-23T07:51:03.555Z,43.00
2017-07-23T07:53:33.398Z,46.30
2017-07-23T07:56:02.931Z,44.40
2017-07-23T07:58:32.554Z,46.20
2017-07-23T08:01:02.543Z,40.70
2017-07-23T08:03:32.177Z,41.70
2017-07-23T08:06:02.092Z,35.00
2017-07-23T08:08:31.709Z,37.30
2017-07-23T08:11:01.580Z,38.60
2017-07-23T08:13:31.502Z,36.80
2017-07-23T08:16:01.125Z,42.40
2017-07-23T08:18:30.631Z,38.40
2017-07-23T08:21:00.101Z,38.70
2017-07-23T08:23:29.567Z,36.90
2017-07-23T08:25:59.333Z,35.70
2017-07-23T08:28:28.803Z,33.30
2017-07-23T08:30:58.382Z,33.30
2017-07-23T08:33:28.404Z,35.60
2017-07-23T08:35:58.862Z,41.40
2017-07-23T08:38:28.618Z,40.80
2017-07-23T08:40:58.285Z,43.40
2017-07-23T08:43:27.958Z,39.10
2017-07-23T08:46:02.483Z,36.30
2017-07-23T08:48:34.397Z,34.90
2017-07-23T08:51:04.606Z,34.50
2017-07-23T08:53:34.332Z,45.50
2017-07-23T08:56:03.822Z,40.80
2017-07-23T08:58:33.630Z,43.20
2017-07-23T09:01:03.164Z,50.70
2017-07-23T09:03:32.718Z,54.80
2017-07-23T09:06:02.599Z,55.70
2017-07-23T09:08:32.114Z,53.90
2017-07-23T09:11:01.646Z,54.20
2017-07-23T09:13:31.189Z,51.50
2017-07-23T09:16:00.730Z,53.40
2017-07-23T09:18:30.591Z,56.80
2017-07-23T09:21:01.526Z,59.40
2017-07-23T09:23:33.202Z,58.80
2017-07-23T09:26:03.088Z,59.80
2017-07-23T09:28:32.597Z,55.70
2017-07-23T09:31:02.369Z,58.20
2017-07-23T09:33:31.880Z,57.50
2017-07-23T09:36:01.390Z,59.20
2017-07-23T09:38:30.898Z,59.30
2017-07-23T09:41:00.418Z,62.50
2017-07-23T09:43:30.204Z,65.10
2017-07-23T09:45:59.761Z,61.90
2017-07-23T09:48:29.226Z,60.50
2017-07-23T09:50:59.080Z,63.70
2017-07-23T09:53:28.563Z,60.50
2017-07-23T09:55:58.067Z,58.50
2017-07-23T09:58:27.647Z,58.70
2017-07-23T10:00:57.274Z,57.90
2017-07-23T10:03:27.614Z,58.00
2017-07-23T10:05:57.648Z,53.10
2017-07-23T10:08:27.182Z,48.60
2017-07-23T10:10:57.094Z,49.60
2017-07-23T10:13:28.466Z,52.20
2017-07-23T10:15:58.300Z,53.00
2017-07-23T10:18:28.043Z,52.70
2017-07-23T10:20:57.717Z,55.50
2017-07-23T10:23:27.511Z,55.80
2017-07-23T10:27:26.424Z,56.00
2017-07-23T10:29:56.128Z,55.60
2017-07-23T10:32:25.986Z,56.30
2017-07-23T10:34:55.833Z,53.20
2017-07-23T10:37:25.425Z,54.50
2017-07-23T10:39:55.111Z,55.00
2017-07-23T10:42:24.615Z,55.60
2017-07-23T10:44:54.267Z,56.50
2017-07-23T10:47:24.115Z,54.70
2017-07-23T10:50:03.219Z,56.00
2017-07-23T10:52:33.004Z,54.90
2017-07-23T10:55:02.661Z,54.30
2017-07-23T10:57:32.250Z,54.20
2017-07-23T11:00:03.180Z,55.90
2017-07-23T11:02:32.776Z,54.60
2017-07-23T11:05:02.687Z,53.60
2017-07-23T11:07:32.809Z,52.90
2017-07-23T11:10:02.301Z,50.00
2017-07-23T11:12:32.597Z,47.10
2017-07-23T11:15:02.146Z,47.00
2017-07-23T11:17:31.967Z,45.70
2017-07-23T11:20:01.775Z,44.60
2017-07-23T11:22:31.303Z,45.40
2017-07-23T11:25:01.123Z,47.60
2017-07-23T11:27:30.644Z,46.20
2017-07-23T11:30:00.258Z,46.80
2017-07-23T11:32:35.085Z,44.70
2017-07-23T11:35:05.635Z,46.80
2017-07-23T11:37:44.022Z,44.40
2017-07-23T11:40:15.089Z,46.30
2017-07-23T11:42:44.663Z,51.50
2017-07-23T11:45:14.245Z,47.30
2017-07-23T11:47:43.762Z,48.60
2017-07-23T11:50:13.296Z,48.50
2017-07-23T11:52:43.203Z,49.10
2017-07-23T11:55:12.748Z,51.60
2017-07-23T11:57:42.934Z,53.10
2017-07-23T12:00:13.272Z,53.40
2017-07-23T12:02:43.839Z,52.00
2017-07-23T12:05:13.482Z,51.50
2017-07-23T12:07:43.292Z,51.80
2017-07-23T12:10:12.796Z,52.50
2017-07-23T12:12:42.581Z,53.30
2017-07-23T12:15:12.115Z,52.30
2017-07-23T12:17:41.840Z,52.50
2017-07-23T12:20:11.739Z,54.00
2017-07-23T12:22:41.382Z,56.70
2017-07-23T12:25:11.022Z,52.90
2017-07-23T12:27:40.565Z,55.00
2017-07-23T12:30:10.329Z,56.30
2017-07-23T12:32:40.299Z,58.30
2017-07-23T12:35:09.846Z,58.80
2017-07-23T12:37:40.255Z,58.80
2017-07-23T12:40:10.855Z,56.90
2017-07-23T12:42:40.905Z,56.90
2017-07-23T12:45:10.995Z,56.70
2017-07-23T12:47:40.745Z,57.00
2017-07-23T12:50:10.410Z,56.40
2017-07-23T12:52:40.485Z,55.70
2017-07-23T12:55:10.094Z,55.10
2017-07-23T12:57:39.914Z,54.00
2017-07-23T13:00:09.454Z,55.10
2017-07-23T13:02:39.112Z,54.40
2017-07-23T13:05:08.916Z,55.20
2017-07-23T13:07:44.243Z,55.70
2017-07-23T13:10:13.919Z,53.90
2017-07-23T13:12:43.814Z,54.60
2017-07-23T13:15:13.305Z,56.20
2017-07-23T13:17:50.219Z,55.30
2017-07-23T13:20:20.917Z,58.40
2017-07-23T13:22:50.558Z,58.30
2017-07-23T13:25:20.359Z,57.10
2017-07-23T13:27:49.923Z,56.80
2017-07-23T13:30:19.458Z,58.00
2017-07-23T13:32:49.133Z,58.40
2017-07-23T13:35:18.716Z,58.40
2017-07-23T13:37:48.485Z,58.10
2017-07-23T13:40:18.002Z,59.30
2017-07-23T13:42:47.526Z,60.50
2017-07-23T13:45:17.364Z,59.30
2017-07-23T13:47:46.929Z,59.80
2017-07-23T13:50:16.506Z,60.00
2017-07-23T13:52:46.060Z,60.40
2017-07-23T13:55:15.626Z,59.50
2017-07-23T13:57:45.434Z,60.10
2017-07-23T14:00:15.102Z,60.90
2017-07-23T14:02:44.761Z,61.20
2017-07-23T14:05:14.546Z,62.30
2017-07-23T14:07:44.170Z,60.70
2017-07-23T14:10:13.838Z,61.20
2017-07-23T14:12:43.388Z,61.20
2017-07-23T14:15:12.893Z,61.10
2017-07-23T14:17:42.661Z,60.00
2017-07-23T14:20:12.221Z,58.40
2017-07-23T14:22:41.851Z,60.30
2017-07-23T14:25:11.402Z,58.90
2017-07-23T14:27:40.915Z,60.10
2017-07-23T14:30:10.804Z,58.80
2017-07-23T14:32:40.585Z,59.70
2017-07-23T14:35:10.058Z,60.50
2017-07-23T14:37:39.807Z,62.30
2017-07-23T14:40:09.362Z,64.10
2017-07-23T14:42:38.850Z,64.20
2017-07-23T14:45:08.689Z,62.80
2017-07-23T14:47:38.603Z,63.90
2017-07-23T14:50:08.412Z,61.40
2017-07-23T14:52:37.918Z,61.30
2017-07-23T14:55:07.494Z,61.50
2017-07-23T14:57:37.013Z,61.70
2017-07-23T15:00:06.554Z,61.90
2017-07-23T15:02:36.714Z,61.90
2017-07-23T15:05:06.253Z,62.10
2017-07-23T15:07:35.927Z,61.00
2017-07-23T15:10:06.270Z,60.10
2017-07-23T15:12:36.166Z,61.90
2017-07-23T15:15:05.811Z,62.90
2017-07-23T15:17:35.726Z,60.80
2017-07-23T15:20:06.242Z,62.90
2017-07-23T15:22:36.047Z,63.00
2017-07-23T15:25:05.774Z,62.50
2017-07-23T15:27:35.302Z,62.70
2017-07-23T15:30:05.331Z,62.10
2017-07-23T15:32:35.003Z,63.20
2017-07-23T15:35:04.706Z,63.60
2017-07-23T15:37:34.628Z,63.70
2017-07-23T15:40:04.228Z,62.30
2017-07-23T15:42:33.834Z,63.40
2017-07-23T15:45:03.534Z,63.50
2017-07-23T15:47:33.099Z,63.50
2017-07-23T15:50:03.260Z,63.80
2017-07-23T15:52:33.477Z,63.50
2017-07-23T15:55:03.167Z,64.90
2017-07-23T15:57:32.969Z,65.30
2017-07-23T16:00:02.498Z,65.30
2017-07-23T16:02:32.026Z,65.90
2017-07-23T16:06:30.793Z,66.30
2017-07-23T16:09:01.992Z,67.10
2017-07-23T16:11:33.643Z,69.40
2017-07-23T16:14:04.209Z,67.00
2017-07-23T16:16:35.872Z,72.80
2017-07-23T16:19:06.657Z,76.40
2017-07-23T16:21:36.692Z,78.10
2017-07-23T16:24:06.293Z,78.80
2017-07-23T16:26:40.878Z,78.50
2017-07-23T16:29:10.815Z,78.50
2017-07-23T16:31:40.413Z,79.90
2017-07-23T16:34:10.048Z,78.70
2017-07-23T16:36:41.460Z,81.20
2017-07-23T16:39:12.444Z,83.20
2017-07-23T16:41:42.014Z,82.10
2017-07-23T16:44:11.642Z,85.40
2017-07-23T16:46:41.653Z,86.80
2017-07-23T16:49:11.246Z,85.70
2017-07-23T16:51:40.997Z,84.50
2017-07-23T16:54:11.009Z,85.80
2017-07-23T16:56:41.087Z,85.90
2017-07-23T16:59:10.894Z,86.00
2017-07-23T17:01:40.560Z,84.00
2017-07-23T17:04:10.589Z,86.10
2017-07-23T17:06:40.648Z,85.40
2017-07-23T17:22:18.915Z,88.20
2017-07-23T17:24:48.431Z,88.90
2017-07-23T17:27:17.954Z,90.90
2017-07-23T17:29:47.768Z,91.00
2017-07-23T17:32:17.333Z,90.40
2017-07-23T17:34:46.846Z,90.60
2017-07-23T17:37:16.965Z,90.00
2017-07-23T17:39:49.252Z,90.00
2017-07-23T17:42:19.345Z,90.00
2017-07-23T17:44:49.703Z,89.80
2017-07-23T17:47:20.435Z,90.10
2017-07-23T17:49:50.423Z,90.10
2017-07-23T17:52:20.535Z,89.60
2017-07-23T17:54:50.174Z,88.60
2017-07-23T17:57:19.991Z,89.80
2017-07-23T17:59:52.802Z,90.90
2017-07-23T18:02:23.226Z,89.90
2017-07-23T18:04:52.934Z,89.10
2017-07-23T18:07:22.532Z,88.30
2017-07-23T18:10:00.737Z,88.20
2017-07-23T18:12:30.326Z,87.40
2017-07-23T18:14:59.923Z,87.30
2017-07-23T18:17:29.856Z,87.30
2017-07-23T18:19:59.483Z,87.30
2017-07-23T18:22:29.058Z,88.00
2017-07-23T18:24:58.898Z,88.00
2017-07-23T18:27:28.427Z,88.30
2017-07-23T18:29:58.025Z,87.80
2017-07-23T18:32:27.910Z,86.70
2017-07-23T18:34:57.487Z,87.70
2017-07-23T18:37:27.187Z,89.40
2017-07-23T18:39:57.153Z,88.00
2017-07-23T18:42:26.971Z,86.90
2017-07-23T18:44:56.552Z,86.50
2017-07-23T18:47:26.518Z,86.80
2017-07-23T18:49:56.033Z,88.10
2017-07-23T18:52:27.130Z,89.30
2017-07-23T18:54:56.734Z,88.40
2017-07-23T18:57:26.281Z,87.20
2017-07-23T18:59:55.947Z,87.40
2017-07-23T19:02:25.746Z,87.20
2017-07-23T19:04:55.502Z,87.40
2017-07-23T19:07:25.202Z,87.10
2017-07-23T19:09:55.120Z,87.10
2017-07-23T19:12:24.712Z,87.50
2017-07-23T19:14:55.039Z,87.40
2017-07-23T19:17:25.071Z,86.80
2017-07-23T19:19:54.638Z,87.60
2017-07-23T19:22:24.418Z,86.20
2017-07-23T19:24:54.324Z,86.50
2017-07-23T19:27:24.089Z,87.00
2017-07-23T19:29:53.829Z,87.80
2017-07-23T19:32:24.462Z,89.50
2017-07-23T19:34:54.033Z,90.40
2017-07-23T19:37:28.653Z,90.60
2017-07-23T19:39:59.147Z,90.20
2017-07-23T19:42:30.155Z,90.20
2017-07-23T19:45:00.098Z,90.20
2017-07-23T19:47:30.496Z,91.10
2017-07-23T19:50:00.737Z,90.90
2017-07-23T19:52:30.260Z,90.60
2017-07-23T19:54:59.827Z,90.80
2017-07-23T19:57:30.382Z,91.40
2017-07-23T20:00:00.806Z,91.10
2017-07-23T20:02:30.351Z,91.00
2017-07-23T20:04:59.870Z,90.50
2017-07-23T20:07:29.686Z,91.20
2017-07-23T20:09:59.224Z,92.20
2017-07-23T20:12:30.519Z,91.80
2017-07-23T20:15:00.419Z,91.60
2017-07-23T20:17:29.948Z,91.30
2017-07-23T20:19:59.466Z,90.90
2017-07-23T20:22:28.992Z,90.60
2017-07-23T20:24:58.832Z,90.70
2017-07-23T20:27:28.330Z,90.40
2017-07-23T20:29:57.848Z,90.80
2017-07-23T20:32:27.334Z,90.70
2017-07-23T20:34:57.164Z,90.20
2017-07-23T20:37:26.663Z,90.00
2017-07-23T20:39:56.186Z,90.00
2017-07-23T20:42:25.790Z,90.10
2017-07-23T20:44:55.295Z,88.90
2017-07-23T20:47:24.835Z,88.30
2017-07-23T20:49:54.382Z,89.70
2017-07-23T20:52:23.938Z,89.20
2017-07-23T20:54:53.499Z,89.60
2017-07-23T20:57:23.043Z,90.00
2017-07-23T20:59:52.843Z,89.50
2017-07-23T21:02:22.357Z,89.30
2017-07-23T21:04:53.357Z,90.00
2017-07-23T21:07:22.937Z,90.00
2017-07-23T21:09:52.614Z,89.40
2017-07-23T21:12:22.654Z,90.00
2017-07-23T21:14:52.446Z,90.40
2017-07-23T21:17:21.963Z,90.20
2017-07-23T21:19:51.500Z,90.40
2017-07-23T21:22:21.063Z,88.20
2017-07-23T21:24:50.582Z,88.00
2017-07-23T21:27:20.505Z,86.80
2017-07-23T21:29:50.597Z,88.70
2017-07-23T21:32:20.718Z,88.00
2017-07-23T21:34:51.479Z,88.70
2017-07-23T21:37:21.379Z,88.70
2017-07-23T21:39:50.861Z,89.30
2017-07-23T21:42:20.800Z,88.60
2017-07-23T21:44:51.563Z,89.80
2017-07-23T21:47:21.107Z,89.80
2017-07-23T21:49:50.856Z,90.10
2017-07-23T21:52:20.391Z,90.40
2017-07-23T21:54:49.899Z,90.50
2017-07-23T21:57:19.431Z,89.50
2017-07-23T21:59:48.934Z,88.90
2017-07-23T22:02:18.899Z,88.60
2017-07-23T22:04:49.008Z,88.70
2017-07-23T22:07:19.563Z,89.60
2017-07-23T22:09:49.274Z,88.80
2017-07-23T22:12:19.738Z,88.50
2017-07-23T22:14:50.511Z,88.20
2017-07-23T22:17:21.664Z,88.30
2017-07-23T22:19:52.706Z,88.70
2017-07-23T22:22:22.909Z,88.70
2017-07-23T22:24:52.995Z,88.80
2017-07-23T22:27:23.354Z,88.80
2017-07-23T22:29:56.039Z,89.30
2017-07-23T22:32:27.727Z,89.30
2017-07-23T22:34:57.974Z,91.30
2017-07-23T22:37:27.986Z,92.60
2017-07-23T22:39:57.743Z,92.70
2017-07-23T22:42:28.385Z,92.70
2017-07-23T22:44:59.062Z,90.90
2017-07-23T22:47:29.046Z,90.90
2017-07-23T22:49:59.546Z,90.80
2017-07-23T22:52:29.651Z,90.50
2017-07-23T22:54:59.597Z,90.40
2017-07-23T22:57:30.671Z,89.60
2017-07-23T23:00:00.214Z,89.60
2017-07-23T23:02:30.530Z,90.30
2017-07-23T23:05:00.891Z,91.10
2017-07-23T23:07:32.425Z,90.30
2017-07-23T23:10:02.427Z,90.30
2017-07-23T23:12:32.709Z,90.70
2017-07-23T23:15:03.419Z,90.10
2017-07-23T23:17:34.571Z,89.80
2017-07-23T23:20:05.225Z,89.50
2017-07-23T23:22:35.217Z,89.30
2017-07-23T23:25:06.378Z,90.30
2017-07-23T23:27:36.293Z,89.80
2017-07-23T23:30:06.018Z,88.70
2017-07-23T23:32:36.365Z,88.40
2017-07-23T23:35:05.854Z,88.80
2017-07-23T23:37:35.683Z,88.10
2017-07-23T23:40:06.052Z,89.90
2017-07-23T23:42:36.722Z,90.90
2017-07-23T23:45:06.225Z,91.00
2017-07-23T23:47:35.974Z,90.60
2017-07-23T23:50:05.564Z,90.30
2017-07-23T23:52:35.112Z,91.70
2017-07-23T23:55:05.334Z,91.80
2017-07-23T23:57:36.313Z,91.60
